Time,TemperatureF,DewpointF,PressureIn,WindDirection,WindDirectionDegrees,WindSpeedMPH,WindSpeedGustMPH,Humidity,HourlyPrecipIn,Conditions,Clouds,dailyrainin,SoftwareType,DateUTC
2013-08-17 00:02:00,64.8,60.1,29.99,NNW,329,0.0,2.0,85,0.00,,,0.11,meteohub,2013-08-17 07:02:00,
2013-08-17 00:07:00,64.8,60.1,29.98,NNW,329,0.0,1.0,85,0.00,,,0.11,meteohub,2013-08-17 07:07:00,
2013-08-17 00:12:00,64.8,60.1,29.98,NNW,329,0.0,1.0,85,0.00,,,0.00,meteohub,2013-08-17 07:12:00,
2013-08-17 00:17:00,64.8,60.1,29.98,NNW,329,0.0,1.0,85,0.00,,,0.00,meteohub,2013-08-17 07:17:00,
2013-08-17 00:22:00,64.9,60.3,29.98,NNW,329,0.0,1.0,85,0.00,,,0.00,meteohub,2013-08-17 07:22:00,
2013-08-17 00:27:00,64.9,60.6,29.99,WNW,294,1.0,1.0,86,0.00,,,0.00,meteohub,2013-08-17 07:27:00,
2013-08-17 00:32:00,64.8,60.4,29.99,NW,325,0.0,1.0,86,0.00,,,0.00,meteohub,2013-08-17 07:32:00,
2013-08-17 00:37:00,64.8,60.4,29.99,North,0,0.0,5.0,86,0.00,,,0.00,meteohub,2013-08-17 07:37:00,
2013-08-17 00:42:00,64.8,60.4,29.99,North,0,0.0,5.0,86,0.00,,,0.00,meteohub,2013-08-17 07:42:00,
2013-08-17 00:47:00,64.8,60.4,29.99,North,0,0.0,5.0,86,0.00,,,0.00,meteohub,2013-08-17 07:47:00,
2013-08-17 00:52:00,64.8,60.4,29.99,North,0,0.0,5.0,86,0.00,,,0.00,meteohub,2013-08-17 07:52:00,
2013-08-17 00:57:00,64.8,60.4,29.99,North,0,0.0,2.0,86,0.00,,,0.00,meteohub,2013-08-17 07:57:00,
2013-08-17 01:03:00,64.8,60.4,29.99,WNW,295,0.0,2.0,86,0.00,,,0.00,meteohub,2013-08-17 08:03:00,
2013-08-17 01:08:00,64.8,60.4,29.99,NW,321,3.0,4.0,86,0.00,,,0.00,meteohub,2013-08-17 08:08:00,
2013-08-17 01:13:00,64.8,60.4,29.99,NW,324,1.0,4.0,86,0.00,,,0.00,meteohub,2013-08-17 08:13:00,
2013-08-17 01:18:00,64.8,60.4,29.99,NW,314,1.0,6.0,86,0.00,,,0.00,meteohub,2013-08-17 08:18:00,
2013-08-17 01:23:00,64.8,60.4,29.99,NW,314,0.0,6.0,86,0.00,,,0.00,meteohub,2013-08-17 08:23:00,
2013-08-17 01:28:00,64.8,60.4,29.99,NW,307,1.0,7.0,86,0.00,,,0.00,meteohub,2013-08-17 08:28:00,
2013-08-17 01:33:00,64.8,60.4,29.99,NNW,333,0.0,7.0,86,0.00,,,0.00,meteohub,2013-08-17 08:33:00,
2013-08-17 01:38:00,64.8,60.4,29.99,NNW,328,0.0,4.0,86,0.00,,,0.00,meteohub,2013-08-17 08:38:00,
2013-08-17 01:43:00,64.8,60.4,29.99,NNW,329,0.0,4.0,86,0.00,,,0.00,meteohub,2013-08-17 08:43:00,
2013-08-17 01:48:00,64.6,60.3,29.98,NW,324,0.0,4.0,86,0.00,,,0.00,meteohub,2013-08-17 08:48:00,
2013-08-17 01:53:00,64.6,60.3,29.99,NW,323,0.0,4.0,86,0.00,,,0.00,meteohub,2013-08-17 08:53:00,
2013-08-17 01:58:00,64.6,60.3,29.99,NW,324,0.0,3.0,86,0.00,,,0.00,meteohub,2013-08-17 08:58:00,
2013-08-17 02:03:00,64.4,60.1,29.98,NW,323,0.0,3.0,86,0.00,,,0.00,meteohub,2013-08-17 09:03:00,
2013-08-17 02:08:00,64.2,60.3,29.98,NW,324,0.0,3.0,87,0.00,,,0.00,meteohub,2013-08-17 09:08:00,
2013-08-17 02:13:00,64.0,60.1,29.98,NW,324,0.0,3.0,87,0.00,,,0.00,meteohub,2013-08-17 09:13:00,
2013-08-17 02:18:00,64.0,60.1,29.98,NW,324,0.0,3.0,87,0.00,,,0.00,meteohub,2013-08-17 09:18:00,
2013-08-17 02:23:00,63.9,59.9,29.98,NW,324,0.0,3.0,87,0.00,,,0.00,meteohub,2013-08-17 09:23:00,
2013-08-17 02:28:00,63.9,59.9,29.98,NW,324,0.0,1.0,87,0.00,,,0.00,meteohub,2013-08-17 09:28:00,
2013-08-17 02:33:00,63.9,59.9,29.98,NW,324,0.0,1.0,87,0.00,,,0.00,meteohub,2013-08-17 09:33:00,
2013-08-17 02:38:00,63.7,59.7,29.98,NW,323,0.0,1.0,87,0.00,,,0.00,meteohub,2013-08-17 09:38:00,
2013-08-17 02:43:00,63.7,59.7,29.98,NW,324,0.0,1.0,87,0.00,,,0.00,meteohub,2013-08-17 09:43:00,
2013-08-17 02:48:00,63.7,59.7,29.98,NW,323,0.0,0.0,87,0.00,,,0.00,meteohub,2013-08-17 09:48:00,
2013-08-17 02:53:00,63.7,59.7,29.98,NW,324,0.0,0.0,87,0.00,,,0.00,meteohub,2013-08-17 09:53:00,
2013-08-17 02:58:00,63.7,59.7,29.98,NW,324,0.0,0.0,87,0.00,,,0.00,meteohub,2013-08-17 09:58:00,
2013-08-17 03:03:00,63.5,59.5,29.98,NW,324,0.0,0.0,87,0.00,,,0.00,meteohub,2013-08-17 10:03:00,
2013-08-17 03:08:00,63.3,59.4,29.98,NW,324,0.0,0.0,87,0.00,,,0.00,meteohub,2013-08-17 10:08:00,
2013-08-17 03:13:00,63.3,59.4,29.98,NW,324,0.0,0.0,87,0.00,,,0.00,meteohub,2013-08-17 10:13:00,
2013-08-17 03:18:00,63.1,59.2,29.98,NW,324,0.0,0.0,87,0.00,,,0.00,meteohub,2013-08-17 10:18:00,
2013-08-17 03:23:00,63.1,59.2,29.98,NW,323,0.0,0.0,87,0.00,,,0.00,meteohub,2013-08-17 10:23:00,
2013-08-17 03:28:00,63.1,59.2,29.99,NW,324,0.0,0.0,87,0.00,,,0.00,meteohub,2013-08-17 10:28:00,
2013-08-17 03:34:00,63.0,59.0,29.99,NW,323,0.0,0.0,87,0.00,,,0.00,meteohub,2013-08-17 10:34:00,
2013-08-17 03:39:00,63.0,59.0,29.99,NW,324,0.0,0.0,87,0.00,,,0.00,meteohub,2013-08-17 10:39:00,
2013-08-17 03:44:00,63.0,59.0,29.99,NW,323,0.0,0.0,87,0.00,,,0.00,meteohub,2013-08-17 10:44:00,
2013-08-17 03:49:00,63.0,59.0,29.99,NW,324,0.0,0.0,87,0.00,,,0.00,meteohub,2013-08-17 10:49:00,
2013-08-17 03:54:00,63.0,59.4,29.99,NW,324,0.0,1.0,88,0.00,,,0.00,meteohub,2013-08-17 10:54:00,
2013-08-17 03:59:00,63.0,59.4,29.99,NW,323,0.0,1.0,88,0.00,,,0.00,meteohub,2013-08-17 10:59:00,
2013-08-17 04:04:00,63.0,59.4,29.99,NW,324,0.0,1.0,88,0.00,,,0.00,meteohub,2013-08-17 11:04:00,
2013-08-17 04:09:00,63.0,59.4,29.99,NW,323,0.0,1.0,88,0.00,,,0.00,meteohub,2013-08-17 11:09:00,
2013-08-17 04:14:00,63.0,59.4,29.99,NW,324,0.0,1.0,88,0.00,,,0.00,meteohub,2013-08-17 11:14:00,
2013-08-17 04:19:00,63.0,59.4,29.99,NW,323,0.0,1.0,88,0.00,,,0.00,meteohub,2013-08-17 11:19:00,
2013-08-17 04:24:00,62.8,59.2,29.99,NW,324,0.0,0.0,88,0.00,,,0.00,meteohub,2013-08-17 11:24:00,
2013-08-17 04:29:00,62.8,59.2,29.99,NW,324,0.0,0.0,88,0.00,,,0.00,meteohub,2013-08-17 11:29:00,
2013-08-17 04:34:00,62.8,59.2,29.99,NW,324,0.0,0.0,88,0.00,,,0.00,meteohub,2013-08-17 11:34:00,
2013-08-17 04:39:00,62.8,59.2,29.99,NW,324,0.0,0.0,88,0.00,,,0.00,meteohub,2013-08-17 11:39:00,
2013-08-17 04:44:00,62.8,59.2,29.99,NW,324,0.0,0.0,88,0.00,,,0.00,meteohub,2013-08-17 11:44:00,
2013-08-17 04:49:00,62.8,58.8,29.99,NW,323,0.0,0.0,87,0.00,,,0.00,meteohub,2013-08-17 11:49:00,
2013-08-17 04:54:00,62.8,58.8,29.99,NW,324,0.0,0.0,87,0.00,,,0.00,meteohub,2013-08-17 11:54:00,
2013-08-17 04:59:00,62.8,58.8,29.99,NW,323,0.0,0.0,87,0.00,,,0.00,meteohub,2013-08-17 11:59:00,
2013-08-17 05:04:00,62.8,58.8,29.98,NW,324,0.0,0.0,87,0.00,,,0.00,meteohub,2013-08-17 12:04:00,
2013-08-17 05:06:00,62.8,58.8,29.98,NW,324,0.0,0.0,87,0.00,,,0.00,meteohub,2013-08-17 12:06:00,
2013-08-17 05:11:00,62.8,58.8,29.98,NW,324,0.0,1.0,87,0.00,,,0.00,meteohub,2013-08-17 12:11:00,
2013-08-17 05:16:00,62.8,58.8,29.98,NW,324,0.0,1.0,87,0.00,,,0.00,meteohub,2013-08-17 12:16:00,
2013-08-17 05:21:00,62.6,58.6,29.98,NW,323,0.0,0.0,87,0.00,,,0.00,meteohub,2013-08-17 12:21:00,
2013-08-17 05:26:00,62.6,58.6,29.98,NW,324,0.0,0.0,87,0.00,,,0.00,meteohub,2013-08-17 12:26:00,
2013-08-17 05:31:00,62.6,58.6,29.98,NW,324,0.0,1.0,87,0.00,,,0.00,meteohub,2013-08-17 12:31:00,
2013-08-17 05:36:00,62.8,58.8,29.98,NW,324,0.0,1.0,87,0.00,,,0.00,meteohub,2013-08-17 12:36:00,
2013-08-17 05:41:00,63.0,59.4,29.98,NW,324,0.0,1.0,88,0.00,,,0.00,meteohub,2013-08-17 12:41:00,
2013-08-17 05:46:00,63.1,59.2,29.98,NW,323,0.0,1.0,87,0.00,,,0.00,meteohub,2013-08-17 12:46:00,
2013-08-17 05:51:00,63.3,59.4,29.98,NW,324,0.0,1.0,87,0.00,,,0.00,meteohub,2013-08-17 12:51:00,
2013-08-17 05:56:00,63.5,59.9,29.99,NW,324,0.0,1.0,88,0.00,,,0.00,meteohub,2013-08-17 12:56:00,
2013-08-17 06:01:00,63.7,59.7,29.99,NW,323,0.0,1.0,87,0.00,,,0.00,meteohub,2013-08-17 13:01:00,
2013-08-17 06:06:00,63.7,59.7,29.99,NW,324,0.0,1.0,87,0.00,,,0.00,meteohub,2013-08-17 13:06:00,
2013-08-17 06:11:00,63.7,59.7,29.99,NW,323,0.0,0.0,87,0.00,,,0.00,meteohub,2013-08-17 13:11:00,
2013-08-17 06:16:00,63.5,59.5,29.99,NW,323,0.0,0.0,87,0.00,,,0.00,meteohub,2013-08-17 13:16:00,
2013-08-17 06:21:00,63.7,59.7,29.99,NW,323,0.0,2.0,87,0.00,,,0.00,meteohub,2013-08-17 13:21:00,
2013-08-17 06:26:00,63.7,59.7,29.99,NW,323,0.0,2.0,87,0.00,,,0.00,meteohub,2013-08-17 13:26:00,
2013-08-17 06:31:00,63.7,59.7,29.99,NW,323,0.0,0.0,87,0.00,,,0.00,meteohub,2013-08-17 13:31:00,
2013-08-17 06:36:00,63.9,59.9,29.99,NW,324,0.0,0.0,87,0.00,,,0.00,meteohub,2013-08-17 13:36:00,
2013-08-17 06:41:00,63.9,59.9,29.99,NNE,18,0.0,1.0,87,0.00,,,0.00,meteohub,2013-08-17 13:41:00,
2013-08-17 06:46:00,64.0,60.1,29.99,NNE,18,0.0,1.0,87,0.00,,,0.00,meteohub,2013-08-17 13:46:00,
2013-08-17 06:51:00,64.2,60.3,29.99,NNE,18,0.0,1.0,87,0.00,,,0.00,meteohub,2013-08-17 13:51:00,
2013-08-17 06:56:00,64.4,60.4,30.00,NNE,18,0.0,1.0,87,0.00,,,0.00,meteohub,2013-08-17 13:56:00,
2013-08-17 07:01:00,64.6,60.6,30.00,NNE,18,0.0,1.0,87,0.00,,,0.00,meteohub,2013-08-17 14:01:00,
2013-08-17 07:06:00,64.8,60.8,30.00,ESE,106,1.0,1.0,87,0.00,,,0.00,meteohub,2013-08-17 14:06:00,
2013-08-17 07:11:00,65.1,61.2,30.00,ESE,106,0.0,4.0,87,0.00,,,0.00,meteohub,2013-08-17 14:11:00,
2013-08-17 07:16:00,64.9,61.0,30.00,East,92,3.0,4.0,87,0.00,,,0.00,meteohub,2013-08-17 14:16:00,
2013-08-17 07:21:00,64.9,61.0,30.00,East,95,0.0,5.0,87,0.00,,,0.00,meteohub,2013-08-17 14:21:00,
2013-08-17 07:26:00,64.9,61.0,30.00,East,98,0.0,5.0,87,0.00,,,0.00,meteohub,2013-08-17 14:26:00,
2013-08-17 07:31:00,64.9,61.0,30.00,ESE,103,0.0,5.0,87,0.00,,,0.00,meteohub,2013-08-17 14:31:00,
2013-08-17 07:36:00,64.9,60.6,30.01,SSE,154,1.0,5.0,86,0.00,,,0.00,meteohub,2013-08-17 14:36:00,
2013-08-17 07:41:00,64.9,60.6,30.01,SE,133,0.0,6.0,86,0.00,,,0.00,meteohub,2013-08-17 14:41:00,
2013-08-17 07:46:00,65.1,60.8,30.01,ESE,106,0.0,6.0,86,0.00,,,0.00,meteohub,2013-08-17 14:46:00,
2013-08-17 07:52:00,65.3,61.0,30.01,East,82,0.0,4.0,86,0.00,,,0.00,meteohub,2013-08-17 14:52:00,
2013-08-17 07:57:00,65.5,61.2,30.01,ESE,107,1.0,4.0,86,0.00,,,0.00,meteohub,2013-08-17 14:57:00,
2013-08-17 08:02:00,65.5,61.2,30.01,East,95,0.0,4.0,86,0.00,,,0.00,meteohub,2013-08-17 15:02:00,
2013-08-17 08:07:00,65.7,61.3,30.01,ESE,109,0.0,4.0,86,0.00,,,0.00,meteohub,2013-08-17 15:07:00,
2013-08-17 08:12:00,65.7,61.3,30.01,ESE,107,1.0,3.0,86,0.00,,,0.00,meteohub,2013-08-17 15:12:00,
2013-08-17 08:17:00,65.7,61.3,30.01,ESE,102,0.0,3.0,86,0.00,,,0.00,meteohub,2013-08-17 15:17:00,
2013-08-17 08:22:00,65.8,61.5,30.01,ESE,113,0.0,7.0,86,0.00,,,0.00,meteohub,2013-08-17 15:22:00,
2013-08-17 08:27:00,66.0,61.7,30.01,East,98,0.0,7.0,86,0.00,,,0.00,meteohub,2013-08-17 15:27:00,
2013-08-17 08:32:00,66.0,61.3,30.01,SSE,155,0.0,7.0,85,0.00,,,0.00,meteohub,2013-08-17 15:32:00,
2013-08-17 08:37:00,66.0,61.3,30.01,SSW,213,2.0,7.0,85,0.00,,,0.00,meteohub,2013-08-17 15:37:00,
2013-08-17 08:42:00,65.8,61.2,30.01,East,90,0.0,7.0,85,0.00,,,0.00,meteohub,2013-08-17 15:42:00,
2013-08-17 08:47:00,65.7,61.0,30.01,ENE,69,0.0,7.0,85,0.00,,,0.00,meteohub,2013-08-17 15:47:00,
2013-08-17 08:52:00,65.7,61.0,30.01,East,84,0.0,5.0,85,0.00,,,0.00,meteohub,2013-08-17 15:52:00,
2013-08-17 08:57:00,65.7,61.0,30.01,ESE,102,0.0,5.0,85,0.00,,,0.00,meteohub,2013-08-17 15:57:00,
2013-08-17 09:02:00,65.8,61.2,30.01,East,84,0.0,5.0,85,0.00,,,0.00,meteohub,2013-08-17 16:02:00,
2013-08-17 09:07:00,65.8,60.8,30.01,East,90,2.0,5.0,84,0.00,,,0.00,meteohub,2013-08-17 16:07:00,
2013-08-17 09:12:00,66.0,61.0,30.02,NE,49,0.0,10.0,84,0.00,,,0.00,meteohub,2013-08-17 16:12:00,
2013-08-17 09:17:00,66.2,61.2,30.02,ESE,115,0.0,10.0,84,0.00,,,0.00,meteohub,2013-08-17 16:17:00,
2013-08-17 09:22:00,66.6,61.5,30.02,ESE,102,3.0,10.0,84,0.00,,,0.00,meteohub,2013-08-17 16:22:00,
2013-08-17 09:27:00,66.6,61.2,30.02,East,101,3.0,10.0,83,0.00,,,0.00,meteohub,2013-08-17 16:27:00,
2013-08-17 09:32:00,66.9,61.5,30.02,ESE,117,0.0,5.0,83,0.00,,,0.00,meteohub,2013-08-17 16:32:00,
2013-08-17 09:37:00,67.3,61.5,30.02,East,92,0.0,5.0,82,0.00,,,0.00,meteohub,2013-08-17 16:37:00,
2013-08-17 09:42:00,67.6,61.9,30.02,ESE,117,3.0,5.0,82,0.00,,,0.00,meteohub,2013-08-17 16:42:00,
2013-08-17 09:47:00,67.8,61.7,30.02,East,95,0.0,5.0,81,0.00,,,0.00,meteohub,2013-08-17 16:47:00,
2013-08-17 09:52:00,68.2,62.1,30.03,ESE,108,0.0,5.0,81,0.00,,,0.00,meteohub,2013-08-17 16:52:00,
2013-08-17 09:57:00,68.4,61.9,30.03,ENE,68,0.0,5.0,80,0.00,,,0.00,meteohub,2013-08-17 16:57:00,
2013-08-17 10:02:00,68.5,61.7,30.03,ESE,109,0.0,4.0,79,0.00,,,0.00,meteohub,2013-08-17 17:02:00,
2013-08-17 10:07:00,68.7,61.9,30.03,East,86,0.0,4.0,79,0.00,,,0.00,meteohub,2013-08-17 17:07:00,
2013-08-17 10:12:00,69.1,62.2,30.03,East,83,0.0,12.0,79,0.00,,,0.00,meteohub,2013-08-17 17:12:00,
2013-08-17 10:17:00,70.2,63.0,30.03,East,99,2.0,12.0,78,0.00,,,0.00,meteohub,2013-08-17 17:17:00,
2013-08-17 10:22:00,71.2,63.0,30.03,SE,145,0.0,7.0,75,0.00,,,0.00,meteohub,2013-08-17 17:22:00,
2013-08-17 10:27:00,71.6,63.0,30.03,ESE,117,0.0,7.0,74,0.00,,,0.00,meteohub,2013-08-17 17:27:00,
2013-08-17 10:32:00,71.4,62.8,30.03,ENE,74,3.0,6.0,74,0.00,,,0.00,meteohub,2013-08-17 17:32:00,
2013-08-17 10:37:00,71.4,62.8,30.03,ESE,112,2.0,6.0,74,0.00,,,0.00,meteohub,2013-08-17 17:37:00,
2013-08-17 10:42:00,71.6,62.4,30.03,East,98,0.0,9.0,73,0.00,,,0.00,meteohub,2013-08-17 17:42:00,
2013-08-17 10:47:00,71.8,62.6,30.03,South,175,1.0,9.0,73,0.00,,,0.00,meteohub,2013-08-17 17:47:00,
2013-08-17 10:52:00,71.6,62.1,30.03,SE,140,1.0,9.0,72,0.00,,,0.00,meteohub,2013-08-17 17:52:00,
2013-08-17 10:57:00,71.2,61.7,30.03,East,84,0.0,9.0,72,0.00,,,0.00,meteohub,2013-08-17 17:57:00,
2013-08-17 11:02:00,71.1,61.5,30.03,ESE,109,0.0,5.0,72,0.00,,,0.00,meteohub,2013-08-17 18:02:00,
2013-08-17 11:07:00,70.9,61.3,30.04,ESE,121,0.0,5.0,72,0.00,,,0.00,meteohub,2013-08-17 18:07:00,
2013-08-17 11:12:00,70.5,61.0,30.04,East,80,1.0,12.0,72,0.00,,,0.00,meteohub,2013-08-17 18:12:00,
2013-08-17 11:17:00,70.3,61.3,30.04,ENE,78,1.0,12.0,73,0.00,,,0.00,meteohub,2013-08-17 18:17:00,
2013-08-17 11:22:00,70.3,61.3,30.04,SE,137,0.0,11.0,73,0.00,,,0.00,meteohub,2013-08-17 18:22:00,
2013-08-17 11:27:00,70.2,61.2,30.04,ESE,107,0.0,11.0,73,0.00,,,0.00,meteohub,2013-08-17 18:27:00,
2013-08-17 11:32:00,70.3,60.8,30.04,East,86,2.0,7.0,72,0.00,,,0.00,meteohub,2013-08-17 18:32:00,
2013-08-17 11:37:00,70.9,61.0,30.04,East,82,0.0,7.0,71,0.00,,,0.00,meteohub,2013-08-17 18:37:00,
2013-08-17 11:42:00,71.2,61.0,30.04,East,89,1.0,7.0,70,0.00,,,0.00,meteohub,2013-08-17 18:42:00,
2013-08-17 11:47:00,71.2,61.0,30.04,East,79,1.0,7.0,70,0.00,,,0.00,meteohub,2013-08-17 18:47:00,
2013-08-17 11:52:00,71.4,61.5,30.04,ESE,105,0.0,7.0,71,0.00,,,0.00,meteohub,2013-08-17 18:52:00,
2013-08-17 11:57:00,71.2,61.7,30.04,East,98,1.0,7.0,72,0.00,,,0.00,meteohub,2013-08-17 18:57:00,
2013-08-17 12:02:00,71.1,61.5,30.04,ESE,113,2.0,10.0,72,0.00,,,0.00,meteohub,2013-08-17 19:02:00,
2013-08-17 12:08:00,70.9,61.3,30.04,East,86,1.0,10.0,72,0.00,,,0.00,meteohub,2013-08-17 19:08:00,
2013-08-17 12:13:00,70.9,61.0,30.04,ESE,114,1.0,10.0,71,0.00,,,0.00,meteohub,2013-08-17 19:13:00,
2013-08-17 12:18:00,71.1,60.8,30.04,East,82,2.0,10.0,70,0.00,,,0.00,meteohub,2013-08-17 19:18:00,
2013-08-17 12:23:00,71.1,60.8,30.05,East,93,1.0,5.0,70,0.00,,,0.00,meteohub,2013-08-17 19:23:00,
2013-08-17 12:28:00,71.1,61.2,30.05,ESE,105,1.0,5.0,71,0.00,,,0.00,meteohub,2013-08-17 19:28:00,
2013-08-17 12:33:00,70.9,61.3,30.05,ESE,121,1.0,5.0,72,0.00,,,0.00,meteohub,2013-08-17 19:33:00,
2013-08-17 12:38:00,70.9,61.9,30.05,SSW,197,0.0,5.0,73,0.00,,,0.00,meteohub,2013-08-17 19:38:00,
2013-08-17 12:43:00,70.9,61.9,30.05,East,98,1.0,5.0,73,0.00,,,0.00,meteohub,2013-08-17 19:43:00,
2013-08-17 12:48:00,71.1,61.9,30.05,SE,146,0.0,5.0,73,0.00,,,0.00,meteohub,2013-08-17 19:48:00,
2013-08-17 12:53:00,71.1,62.4,30.05,ESE,105,0.0,9.0,74,0.00,,,0.00,meteohub,2013-08-17 19:53:00,
2013-08-17 12:58:00,71.2,62.1,30.05,East,99,0.0,9.0,73,0.00,,,0.00,meteohub,2013-08-17 19:58:00,
2013-08-17 13:03:00,71.2,61.7,30.05,NNW,327,0.0,4.0,72,0.00,,,0.00,meteohub,2013-08-17 20:03:00,
2013-08-17 13:08:00,71.8,62.6,30.05,SSE,157,1.0,4.0,73,0.00,,,0.00,meteohub,2013-08-17 20:08:00,
2013-08-17 13:13:00,72.7,62.8,30.05,SW,217,2.0,4.0,71,0.00,,,0.00,meteohub,2013-08-17 20:13:00,
2013-08-17 13:18:00,73.6,63.1,30.05,ENE,62,2.0,4.0,70,0.00,,,0.00,meteohub,2013-08-17 20:18:00,
2013-08-17 13:23:00,73.9,62.8,30.05,SE,142,0.0,7.0,68,0.00,,,0.00,meteohub,2013-08-17 20:23:00,
2013-08-17 13:28:00,73.4,62.6,30.05,ESE,111,0.0,7.0,69,0.00,,,0.00,meteohub,2013-08-17 20:28:00,
2013-08-17 13:33:00,73.0,62.6,30.05,ENE,74,0.0,7.0,70,0.00,,,0.00,meteohub,2013-08-17 20:33:00,
2013-08-17 13:38:00,72.9,62.4,30.05,ESE,103,1.0,7.0,70,0.00,,,0.00,meteohub,2013-08-17 20:38:00,
2013-08-17 13:43:00,72.7,62.2,30.05,South,179,10.0,10.0,70,0.00,,,0.00,meteohub,2013-08-17 20:43:00,
2013-08-17 13:48:00,72.9,62.4,30.05,SE,135,4.0,14.0,70,0.00,,,0.00,meteohub,2013-08-17 20:48:00,
2013-08-17 13:53:00,72.7,62.8,30.05,ESE,106,0.0,14.0,71,0.00,,,0.00,meteohub,2013-08-17 20:53:00,
2013-08-17 13:58:00,72.5,63.0,30.05,East,92,0.0,14.0,72,0.00,,,0.00,meteohub,2013-08-17 20:58:00,
2013-08-17 14:03:00,72.1,62.2,30.05,ESE,110,0.0,14.0,71,0.00,,,0.00,meteohub,2013-08-17 21:03:00,
2013-08-17 14:08:00,72.0,62.4,30.05,ESE,107,0.0,7.0,72,0.00,,,0.00,meteohub,2013-08-17 21:08:00,
2013-08-17 14:13:00,72.3,62.8,30.05,ESE,103,1.0,7.0,72,0.00,,,0.00,meteohub,2013-08-17 21:13:00,
2013-08-17 14:18:00,72.9,63.0,30.04,SE,129,1.0,6.0,71,0.00,,,0.00,meteohub,2013-08-17 21:18:00,
2013-08-17 14:23:00,72.9,62.4,30.05,ESE,108,3.0,6.0,70,0.00,,,0.00,meteohub,2013-08-17 21:23:00,
2013-08-17 14:28:00,72.9,63.0,30.04,ESE,110,2.0,6.0,71,0.00,,,0.00,meteohub,2013-08-17 21:28:00,
2013-08-17 14:33:00,72.7,63.1,30.04,ESE,114,0.0,6.0,72,0.00,,,0.00,meteohub,2013-08-17 21:33:00,
2013-08-17 14:38:00,72.5,63.0,30.05,East,96,1.0,5.0,72,0.00,,,0.00,meteohub,2013-08-17 21:38:00,
2013-08-17 14:43:00,72.0,62.8,30.04,East,99,5.0,5.0,73,0.00,,,0.00,meteohub,2013-08-17 21:43:00,
2013-08-17 14:48:00,71.6,62.4,30.05,ESE,119,0.0,6.0,73,0.00,,,0.00,meteohub,2013-08-17 21:48:00,
2013-08-17 14:53:00,71.4,62.8,30.05,ESE,115,0.0,6.0,74,0.00,,,0.00,meteohub,2013-08-17 21:53:00,
2013-08-17 14:59:00,71.4,63.1,30.05,East,95,0.0,6.0,75,0.00,,,0.00,meteohub,2013-08-17 21:59:00,
2013-08-17 15:04:00,71.8,63.0,30.05,ESE,105,0.0,6.0,74,0.00,,,0.00,meteohub,2013-08-17 22:04:00,
2013-08-17 15:09:00,72.1,63.3,30.05,ENE,75,0.0,5.0,74,0.00,,,0.00,meteohub,2013-08-17 22:09:00,
2013-08-17 15:14:00,72.7,63.9,30.05,East,98,0.0,5.0,74,0.00,,,0.00,meteohub,2013-08-17 22:14:00,
2013-08-17 15:19:00,72.7,63.1,30.04,East,98,0.0,3.0,72,0.00,,,0.00,meteohub,2013-08-17 22:19:00,
2013-08-17 15:24:00,72.7,63.5,30.05,East,94,3.0,3.0,73,0.00,,,0.00,meteohub,2013-08-17 22:24:00,
2013-08-17 15:29:00,72.7,63.5,30.05,East,98,0.0,4.0,73,0.00,,,0.00,meteohub,2013-08-17 22:29:00,
2013-08-17 15:34:00,72.7,63.5,30.04,SE,128,0.0,4.0,73,0.00,,,0.00,meteohub,2013-08-17 22:34:00,
2013-08-17 15:39:00,73.0,63.9,30.04,ENE,76,2.0,9.0,73,0.00,,,0.00,meteohub,2013-08-17 22:39:00,
2013-08-17 15:44:00,73.2,63.7,30.04,East,79,0.0,9.0,72,0.00,,,0.00,meteohub,2013-08-17 22:44:00,
2013-08-17 15:49:00,73.6,63.1,30.04,East,88,2.0,6.0,70,0.00,,,0.00,meteohub,2013-08-17 22:49:00,
2013-08-17 15:54:00,73.9,62.8,30.04,East,101,0.0,6.0,68,0.00,,,0.00,meteohub,2013-08-17 22:54:00,
2013-08-17 15:59:00,73.9,62.2,30.04,East,92,3.0,12.0,67,0.00,,,0.00,meteohub,2013-08-17 22:59:00,
2013-08-17 16:04:00,73.8,62.1,30.04,SE,146,0.0,12.0,67,0.00,,,0.00,meteohub,2013-08-17 23:04:00,
2013-08-17 16:09:00,73.9,62.2,30.04,East,96,4.0,9.0,67,0.00,,,0.00,meteohub,2013-08-17 23:09:00,
2013-08-17 16:14:00,74.5,62.8,30.04,East,90,3.0,9.0,67,0.00,,,0.00,meteohub,2013-08-17 23:14:00,
2013-08-17 16:19:00,74.1,62.1,30.04,East,99,0.0,9.0,66,0.00,,,0.00,meteohub,2013-08-17 23:19:00,
2013-08-17 16:24:00,73.8,61.7,30.04,ESE,115,0.0,9.0,66,0.00,,,0.00,meteohub,2013-08-17 23:24:00,
2013-08-17 16:29:00,73.9,62.2,30.04,SE,125,0.0,6.0,67,0.00,,,0.00,meteohub,2013-08-17 23:29:00,
2013-08-17 16:34:00,73.9,61.9,30.03,East,101,0.0,6.0,66,0.00,,,0.00,meteohub,2013-08-17 23:34:00,
2013-08-17 16:39:00,74.1,62.1,30.03,ESE,111,1.0,7.0,66,0.00,,,0.00,meteohub,2013-08-17 23:39:00,
2013-08-17 16:44:00,74.5,61.9,30.03,SE,126,1.0,7.0,65,0.00,,,0.00,meteohub,2013-08-17 23:44:00,
2013-08-17 16:49:00,74.7,61.7,30.03,East,84,1.0,7.0,64,0.00,,,0.00,meteohub,2013-08-17 23:49:00,
2013-08-17 16:54:00,74.8,61.9,30.03,East,99,1.0,7.0,64,0.00,,,0.00,meteohub,2013-08-17 23:54:00,
2013-08-17 16:59:00,75.0,61.5,30.03,East,96,2.0,7.0,63,0.00,,,0.00,meteohub,2013-08-17 23:59:00,
2013-08-17 17:04:00,75.0,61.5,30.03,ESE,113,0.0,7.0,63,0.00,,,0.00,meteohub,2013-08-18 00:04:00,
2013-08-17 17:09:00,74.8,61.3,30.03,East,80,5.0,7.0,63,0.00,,,0.00,meteohub,2013-08-18 00:09:00,
2013-08-17 17:15:00,74.8,61.3,30.03,ESE,103,0.0,7.0,63,0.00,,,0.00,meteohub,2013-08-18 00:15:00,
2013-08-17 17:20:00,75.2,61.3,30.03,East,96,0.0,10.0,62,0.00,,,0.00,meteohub,2013-08-18 00:20:00,
2013-08-17 17:25:00,75.0,61.2,30.03,SE,128,0.0,10.0,62,0.00,,,0.00,meteohub,2013-08-18 00:25:00,
2013-08-17 17:30:00,74.8,61.0,30.03,East,98,0.0,10.0,62,0.00,,,0.00,meteohub,2013-08-18 00:30:00,
2013-08-17 17:35:00,74.8,60.4,30.03,East,95,1.0,10.0,61,0.00,,,0.00,meteohub,2013-08-18 00:35:00,
2013-08-17 17:40:00,74.8,60.1,30.02,East,98,3.0,10.0,60,0.00,,,0.00,meteohub,2013-08-18 00:40:00,
2013-08-17 17:45:00,74.8,61.0,30.03,East,84,0.0,10.0,62,0.00,,,0.00,meteohub,2013-08-18 00:45:00,
2013-08-17 17:50:00,74.8,60.4,30.03,SE,130,1.0,9.0,61,0.00,,,0.00,meteohub,2013-08-18 00:50:00,
2013-08-17 17:55:00,74.8,61.3,30.03,ESE,111,0.0,9.0,63,0.00,,,0.00,meteohub,2013-08-18 00:55:00,
2013-08-17 18:00:00,74.8,61.3,30.02,ENE,70,1.0,9.0,63,0.00,,,0.00,meteohub,2013-08-18 01:00:00,
2013-08-17 18:05:00,75.0,61.5,30.02,ENE,57,1.0,9.0,63,0.00,,,0.00,meteohub,2013-08-18 01:05:00,
2013-08-17 18:10:00,74.8,61.3,30.03,ESE,105,1.0,6.0,63,0.00,,,0.00,meteohub,2013-08-18 01:10:00,
2013-08-17 18:15:00,74.5,61.0,30.03,East,88,0.0,6.0,63,0.00,,,0.00,meteohub,2013-08-18 01:15:00,
2013-08-17 18:20:00,73.4,60.4,30.02,ESE,107,0.0,5.0,64,0.00,,,0.00,meteohub,2013-08-18 01:20:00,
2013-08-17 18:25:00,72.9,60.4,30.02,East,83,2.0,5.0,65,0.00,,,0.00,meteohub,2013-08-18 01:25:00,
2013-08-17 18:30:00,73.0,60.6,30.02,East,96,0.0,5.0,65,0.00,,,0.00,meteohub,2013-08-18 01:30:00,
2013-08-17 18:35:00,73.8,60.8,30.02,East,86,0.0,5.0,64,0.00,,,0.00,meteohub,2013-08-18 01:35:00,
2013-08-17 18:40:00,74.1,60.8,30.02,East,79,0.0,6.0,63,0.00,,,0.00,meteohub,2013-08-18 01:40:00,
2013-08-17 18:45:00,74.3,60.8,30.02,ESE,107,2.0,6.0,63,0.00,,,0.00,meteohub,2013-08-18 01:45:00,
2013-08-17 18:50:00,74.5,61.0,30.02,ENE,78,0.0,6.0,63,0.00,,,0.00,meteohub,2013-08-18 01:50:00,
2013-08-17 18:55:00,74.5,61.0,30.02,East,90,1.0,6.0,63,0.00,,,0.00,meteohub,2013-08-18 01:55:00,
2013-08-17 19:00:00,74.1,61.2,30.02,East,91,2.0,5.0,64,0.00,,,0.00,meteohub,2013-08-18 02:00:00,
2013-08-17 19:05:00,73.9,61.0,30.02,East,98,0.0,5.0,64,0.00,,,0.00,meteohub,2013-08-18 02:05:00,
2013-08-17 19:10:00,73.8,60.8,30.02,SE,126,2.0,5.0,64,0.00,,,0.00,meteohub,2013-08-18 02:10:00,
2013-08-17 19:15:00,73.4,61.0,30.02,East,90,0.0,5.0,65,0.00,,,0.00,meteohub,2013-08-18 02:15:00,
2013-08-17 19:20:00,73.2,60.8,30.02,East,98,0.0,6.0,65,0.00,,,0.00,meteohub,2013-08-18 02:20:00,
2013-08-17 19:25:00,73.0,61.0,30.02,East,88,1.0,6.0,66,0.00,,,0.00,meteohub,2013-08-18 02:25:00,
2013-08-17 19:30:00,72.7,60.6,30.02,East,84,0.0,6.0,66,0.00,,,0.00,meteohub,2013-08-18 02:30:00,
2013-08-17 19:35:00,72.7,60.3,30.02,East,82,0.0,6.0,65,0.00,,,0.00,meteohub,2013-08-18 02:35:00,
2013-08-17 19:41:00,72.0,59.9,30.02,East,86,0.0,4.0,66,0.00,,,0.00,meteohub,2013-08-18 02:41:00,
2013-08-17 19:46:00,71.4,60.3,30.02,East,84,0.0,4.0,68,0.00,,,0.00,meteohub,2013-08-18 02:46:00,
2013-08-17 19:51:00,71.2,60.6,30.03,ENE,74,0.0,2.0,69,0.00,,,0.00,meteohub,2013-08-18 02:51:00,
2013-08-17 19:56:00,70.9,60.3,30.02,East,87,0.0,2.0,69,0.00,,,0.00,meteohub,2013-08-18 02:56:00,
2013-08-17 20:01:00,70.3,60.1,30.02,East,88,0.0,4.0,70,0.00,,,0.00,meteohub,2013-08-18 03:01:00,
2013-08-17 20:06:00,70.2,59.9,30.03,East,88,0.0,4.0,70,0.00,,,0.00,meteohub,2013-08-18 03:06:00,
2013-08-17 20:11:00,70.0,59.7,30.02,East,88,0.0,3.0,70,0.00,,,0.00,meteohub,2013-08-18 03:11:00,
2013-08-17 20:16:00,69.6,59.0,30.02,East,88,0.0,3.0,69,0.00,,,0.00,meteohub,2013-08-18 03:16:00,
2013-08-17 20:21:00,69.4,59.2,30.03,East,88,0.0,1.0,70,0.00,,,0.00,meteohub,2013-08-18 03:21:00,
2013-08-17 20:26:00,69.3,59.0,30.03,East,88,0.0,1.0,70,0.00,,,0.00,meteohub,2013-08-18 03:26:00,
2013-08-17 20:31:00,69.1,58.8,30.02,East,88,0.0,1.0,70,0.00,,,0.00,meteohub,2013-08-18 03:31:00,
2013-08-17 20:36:00,68.7,59.0,30.02,East,88,0.0,1.0,71,0.00,,,0.00,meteohub,2013-08-18 03:36:00,
2013-08-17 20:41:00,68.4,58.6,30.02,East,88,0.0,1.0,71,0.00,,,0.00,meteohub,2013-08-18 03:41:00,
2013-08-17 20:46:00,68.2,58.5,30.03,East,88,0.0,1.0,71,0.00,,,0.00,meteohub,2013-08-18 03:46:00,
2013-08-17 20:51:00,68.0,58.6,30.03,East,88,0.0,1.0,72,0.00,,,0.00,meteohub,2013-08-18 03:51:00,
2013-08-17 20:56:00,67.8,58.5,30.03,East,88,0.0,1.0,72,0.00,,,0.00,meteohub,2013-08-18 03:56:00,
2013-08-17 21:01:00,67.6,58.3,30.03,East,88,0.0,1.0,72,0.00,,,0.00,meteohub,2013-08-18 04:01:00,
2013-08-17 21:06:00,67.5,58.5,30.03,East,88,0.0,1.0,73,0.00,,,0.00,meteohub,2013-08-18 04:06:00,
2013-08-17 21:11:00,67.3,58.3,30.03,East,88,0.0,1.0,73,0.00,,,0.00,meteohub,2013-08-18 04:11:00,
2013-08-17 21:16:00,67.1,58.5,30.04,East,88,0.0,1.0,74,0.00,,,0.00,meteohub,2013-08-18 04:16:00,
2013-08-17 21:21:00,66.9,58.3,30.04,East,88,0.0,1.0,74,0.00,,,0.00,meteohub,2013-08-18 04:21:00,
2013-08-17 21:26:00,66.7,58.1,30.04,East,88,0.0,1.0,74,0.00,,,0.00,meteohub,2013-08-18 04:26:00,
2013-08-17 21:31:00,66.6,58.1,30.04,East,88,0.0,1.0,74,0.00,,,0.00,meteohub,2013-08-18 04:31:00,
2013-08-17 21:36:00,66.6,58.5,30.04,East,88,0.0,1.0,75,0.00,,,0.00,meteohub,2013-08-18 04:36:00,
2013-08-17 21:41:00,66.4,58.3,30.04,East,88,0.0,1.0,75,0.00,,,0.00,meteohub,2013-08-18 04:41:00,
2013-08-17 21:46:00,66.0,57.9,30.04,East,88,0.0,1.0,75,0.00,,,0.00,meteohub,2013-08-18 04:46:00,
2013-08-17 21:51:00,65.8,57.7,30.04,East,88,0.0,0.0,75,0.00,,,0.00,meteohub,2013-08-18 04:51:00,
2013-08-17 21:56:00,65.8,58.1,30.04,East,88,0.0,0.0,76,0.00,,,0.00,meteohub,2013-08-18 04:56:00,
2013-08-17 22:01:00,65.7,57.9,30.04,East,88,0.0,1.0,76,0.00,,,0.00,meteohub,2013-08-18 05:01:00,
2013-08-17 22:06:00,65.3,57.6,30.04,East,88,0.0,1.0,76,0.00,,,0.00,meteohub,2013-08-18 05:06:00,
2013-08-17 22:12:00,65.1,57.7,30.04,East,88,0.0,1.0,77,0.00,,,0.00,meteohub,2013-08-18 05:12:00,
2013-08-17 22:17:00,65.1,57.7,30.04,East,88,0.0,1.0,77,0.00,,,0.00,meteohub,2013-08-18 05:17:00,
2013-08-17 22:22:00,64.9,57.6,30.04,East,88,0.0,1.0,77,0.00,,,0.00,meteohub,2013-08-18 05:22:00,
2013-08-17 22:27:00,64.9,57.6,30.04,East,88,0.0,1.0,77,0.00,,,0.00,meteohub,2013-08-18 05:27:00,
2013-08-17 22:32:00,64.8,57.4,30.04,East,88,0.0,1.0,77,0.00,,,0.00,meteohub,2013-08-18 05:32:00,
2013-08-17 22:37:00,64.8,57.4,30.04,East,88,0.0,1.0,77,0.00,,,0.00,meteohub,2013-08-18 05:37:00,
2013-08-17 22:42:00,64.6,57.2,30.04,East,88,0.0,0.0,77,0.00,,,0.00,meteohub,2013-08-18 05:42:00,
2013-08-17 22:47:00,64.4,57.0,30.04,East,88,0.0,0.0,77,0.00,,,0.00,meteohub,2013-08-18 05:47:00,
2013-08-17 22:52:00,64.2,57.2,30.04,East,88,0.0,0.0,78,0.00,,,0.00,meteohub,2013-08-18 05:52:00,
2013-08-17 22:57:00,64.0,57.0,30.04,East,88,0.0,0.0,78,0.00,,,0.00,meteohub,2013-08-18 05:57:00,
2013-08-17 23:02:00,64.0,57.0,30.04,East,88,0.0,0.0,78,0.00,,,0.00,meteohub,2013-08-18 06:02:00,
2013-08-17 23:07:00,63.9,56.8,30.04,East,88,0.0,0.0,78,0.00,,,0.00,meteohub,2013-08-18 06:07:00,
2013-08-17 23:12:00,63.9,56.8,30.04,East,88,0.0,0.0,78,0.00,,,0.00,meteohub,2013-08-18 06:12:00,
2013-08-17 23:17:00,63.5,56.8,30.04,East,88,0.0,0.0,79,0.00,,,0.00,meteohub,2013-08-18 06:17:00,
2013-08-17 23:22:00,63.1,56.5,30.04,East,88,0.0,0.0,79,0.00,,,0.00,meteohub,2013-08-18 06:22:00,
2013-08-17 23:27:00,63.0,56.3,30.05,East,88,0.0,0.0,79,0.00,,,0.00,meteohub,2013-08-18 06:27:00,
2013-08-17 23:32:00,63.0,56.3,30.05,East,88,0.0,0.0,79,0.00,,,0.00,meteohub,2013-08-18 06:32:00,
2013-08-17 23:37:00,62.8,56.5,30.05,East,88,0.0,0.0,80,0.00,,,0.00,meteohub,2013-08-18 06:37:00,
2013-08-17 23:42:00,62.6,56.3,30.05,East,88,0.0,0.0,80,0.00,,,0.00,meteohub,2013-08-18 06:42:00,
2013-08-17 23:47:00,62.4,56.5,30.05,East,88,0.0,0.0,81,0.00,,,0.00,meteohub,2013-08-18 06:47:00,
2013-08-17 23:52:00,62.2,56.3,30.05,East,88,0.0,0.0,81,0.00,,,0.00,meteohub,2013-08-18 06:52:00,
2013-08-17 23:57:00,62.2,56.3,30.05,East,88,0.0,0.0,81,0.00,,,0.00,meteohub,2013-08-18 06:57:00,